createdAt,value
2016-10-12T00:00:09.878Z,952.69
2016-10-12T00:01:09.902Z,952.67
2016-10-12T00:02:09.915Z,952.68
2016-10-12T00:03:09.929Z,952.66
2016-10-12T00:04:09.947Z,952.69
2016-10-12T00:05:09.964Z,952.61
2016-10-12T00:06:09.982Z,952.67
2016-10-12T00:07:10.118Z,952.67
2016-10-12T00:08:10.018Z,952.62
2016-10-12T00:09:10.034Z,952.64
2016-10-12T00:10:10.057Z,952.65
2016-10-12T00:11:10.070Z,952.64
2016-10-12T00:12:10.088Z,952.66
2016-10-12T00:13:10.107Z,952.62
2016-10-12T00:14:10.121Z,952.63
2016-10-12T00:15:10.140Z,952.67
2016-10-12T00:16:10.169Z,952.64
2016-10-12T00:17:10.179Z,952.68
2016-10-12T00:18:10.204Z,952.68
2016-10-12T00:19:10.219Z,952.65
2016-10-12T00:20:10.228Z,952.68
2016-10-12T00:21:10.251Z,952.67
2016-10-12T00:22:10.264Z,952.69
2016-10-12T00:23:10.282Z,952.69
2016-10-12T00:24:10.336Z,952.71
2016-10-12T00:25:10.319Z,952.69
2016-10-12T00:26:10.331Z,952.68
2016-10-12T00:27:10.346Z,952.71
2016-10-12T00:28:10.374Z,952.67
2016-10-12T00:29:10.389Z,952.69
2016-10-12T00:30:10.407Z,952.7
2016-10-12T00:31:10.418Z,952.67
2016-10-12T00:32:10.433Z,952.69
2016-10-12T00:33:10.454Z,952.68
2016-10-12T00:34:10.471Z,952.68
2016-10-12T00:35:10.487Z,952.68
2016-10-12T00:36:10.507Z,952.69
2016-10-12T00:37:10.718Z,952.65
2016-10-12T00:38:10.539Z,952.66
2016-10-12T00:39:10.558Z,952.65
2016-10-12T00:40:10.574Z,952.65
2016-10-12T00:41:10.595Z,952.67
2016-10-12T00:42:10.610Z,952.65
2016-10-12T00:43:10.627Z,952.63
2016-10-12T00:44:10.796Z,952.61
2016-10-12T00:45:10.666Z,952.64
2016-10-12T00:46:10.678Z,952.64
2016-10-12T00:47:10.714Z,952.63
2016-10-12T00:48:10.747Z,952.63
2016-10-12T00:49:10.753Z,952.64
2016-10-12T00:50:10.767Z,952.65
2016-10-12T00:51:10.849Z,952.64
2016-10-12T00:52:10.783Z,952.63
2016-10-12T00:53:10.809Z,952.63
2016-10-12T00:54:10.821Z,952.63
2016-10-12T00:55:10.838Z,952.63
2016-10-12T00:56:10.853Z,952.62
2016-10-12T00:57:10.887Z,952.64
2016-10-12T00:58:10.897Z,952.63
2016-10-12T00:59:10.907Z,952.63
2016-10-12T01:00:10.922Z,952.62
2016-10-12T01:01:11.112Z,952.59
2016-10-12T01:02:10.957Z,952.6
2016-10-12T01:03:10.975Z,952.61
2016-10-12T01:04:10.995Z,952.61
2016-10-12T01:05:11.012Z,952.61
2016-10-12T01:06:11.026Z,952.61
2016-10-12T01:07:11.045Z,952.61
2016-10-12T01:08:11.061Z,952.65
2016-10-12T01:09:11.079Z,952.63
2016-10-12T01:10:11.096Z,952.63
2016-10-12T01:11:11.113Z,952.64
2016-10-12T01:12:11.131Z,952.64
2016-10-12T01:13:11.161Z,952.61
2016-10-12T01:14:11.166Z,952.56
2016-10-12T01:15:11.183Z,952.57
2016-10-12T01:16:11.201Z,952.56
2016-10-12T01:17:11.218Z,952.54
2016-10-12T01:18:11.236Z,952.52
2016-10-12T01:19:11.252Z,952.56
2016-10-12T01:20:11.292Z,952.55
2016-10-12T01:21:11.288Z,952.54
2016-10-12T01:22:11.304Z,952.55
2016-10-12T01:23:11.401Z,952.56
2016-10-12T01:24:11.340Z,952.54
2016-10-12T01:25:11.494Z,952.54
2016-10-12T01:26:11.386Z,952.54
2016-10-12T01:27:11.391Z,952.55
2016-10-12T01:28:11.417Z,952.54
2016-10-12T01:29:11.425Z,952.54
2016-10-12T01:30:11.443Z,952.54
2016-10-12T01:31:11.460Z,952.53
2016-10-12T01:32:11.478Z,952.53
2016-10-12T01:33:11.499Z,952.53
2016-10-12T01:34:11.519Z,952.49
2016-10-12T01:35:11.530Z,952.51
2016-10-12T01:36:11.547Z,952.52
2016-10-12T01:37:11.564Z,952.5
2016-10-12T01:38:11.581Z,952.52
2016-10-12T01:39:11.599Z,952.51
2016-10-12T01:40:11.617Z,952.48
2016-10-12T01:41:11.664Z,952.54
2016-10-12T01:42:11.652Z,952.53
2016-10-12T01:43:11.704Z,952.54
2016-10-12T01:44:11.688Z,952.52
2016-10-12T01:45:11.705Z,952.53
2016-10-12T01:46:11.750Z,952.53
2016-10-12T01:47:11.748Z,952.54
2016-10-12T01:48:11.762Z,952.59
2016-10-12T01:49:11.777Z,952.57
2016-10-12T01:50:11.796Z,952.63
2016-10-12T01:51:11.808Z,952.62
2016-10-12T01:52:11.826Z,952.56
2016-10-12T01:53:11.850Z,952.59
2016-10-12T01:54:11.886Z,952.58
2016-10-12T01:55:11.910Z,952.6
2016-10-12T01:56:11.894Z,952.58
2016-10-12T01:57:11.911Z,952.6
2016-10-12T01:58:11.930Z,952.55
2016-10-12T01:59:11.946Z,952.61
2016-10-12T02:00:11.964Z,952.59
2016-10-12T02:01:11.981Z,952.61
2016-10-12T02:02:11.998Z,952.58
2016-10-12T02:03:12.048Z,952.61
2016-10-12T02:04:12.033Z,952.6
2016-10-12T02:05:12.064Z,952.6
2016-10-12T02:06:12.067Z,952.57
2016-10-12T02:07:12.084Z,952.59
2016-10-12T02:08:12.102Z,952.6
2016-10-12T02:09:12.119Z,952.58
2016-10-12T02:10:12.135Z,952.58
2016-10-12T02:11:12.153Z,952.63
2016-10-12T02:12:12.186Z,952.65
2016-10-12T02:13:12.187Z,952.63
2016-10-12T02:14:12.205Z,952.61
2016-10-12T02:15:12.223Z,952.62
2016-10-12T02:16:12.261Z,952.63
2016-10-12T02:17:12.294Z,952.68
2016-10-12T02:18:12.275Z,952.65
2016-10-12T02:19:12.291Z,952.63
2016-10-12T02:20:12.311Z,952.64
2016-10-12T02:21:12.326Z,952.66
2016-10-12T02:22:12.343Z,952.66
2016-10-12T02:23:12.361Z,952.69
2016-10-12T02:24:12.378Z,952.66
2016-10-12T02:25:12.544Z,952.7
2016-10-12T02:26:12.541Z,952.66
2016-10-12T02:27:12.431Z,952.69
2016-10-12T02:28:12.446Z,952.7
2016-10-12T02:29:12.464Z,952.68
2016-10-12T02:30:12.482Z,952.67
2016-10-12T02:31:12.500Z,952.69
2016-10-12T02:32:12.528Z,952.67
2016-10-12T02:33:12.533Z,952.71
2016-10-12T02:34:12.585Z,952.71
2016-10-12T02:35:12.568Z,952.68
2016-10-12T02:36:12.585Z,952.71
2016-10-12T02:37:12.603Z,952.7
2016-10-12T02:38:12.620Z,952.67
2016-10-12T02:39:12.637Z,952.68
2016-10-12T02:40:12.655Z,952.7
2016-10-12T02:41:12.758Z,952.66
2016-10-12T02:42:12.694Z,952.71
2016-10-12T02:43:12.705Z,952.69
2016-10-12T02:44:12.724Z,952.72
2016-10-12T02:45:12.741Z,952.7
2016-10-12T02:46:12.758Z,952.67
2016-10-12T02:47:12.776Z,952.66
2016-10-12T02:48:12.793Z,952.64
2016-10-12T02:49:12.810Z,952.65
2016-10-12T02:50:12.827Z,952.63
2016-10-12T02:51:12.844Z,952.66
2016-10-12T02:52:12.862Z,952.66
2016-10-12T02:53:12.878Z,952.65
2016-10-12T02:54:12.896Z,952.65
2016-10-12T02:55:12.916Z,952.66
2016-10-12T02:56:12.931Z,952.69
2016-10-12T02:57:12.968Z,952.68
2016-10-12T02:58:12.965Z,952.69
2016-10-12T02:59:12.983Z,952.68
2016-10-12T03:00:13.004Z,952.69
2016-10-12T03:01:13.016Z,952.66
2016-10-12T03:02:13.034Z,952.66
2016-10-12T03:03:13.264Z,952.66
2016-10-12T03:04:13.092Z,952.64
2016-10-12T03:05:13.089Z,952.67
2016-10-12T03:06:13.109Z,952.67
2016-10-12T03:07:13.124Z,952.67
2016-10-12T03:08:13.146Z,952.7
2016-10-12T03:09:13.359Z,952.67
2016-10-12T03:10:13.172Z,952.68
2016-10-12T03:11:13.189Z,952.69
2016-10-12T03:12:13.225Z,952.65
2016-10-12T03:13:13.246Z,952.65
2016-10-12T03:14:13.242Z,952.66
2016-10-12T03:15:13.258Z,952.67
2016-10-12T03:16:13.308Z,952.67
2016-10-12T03:17:13.298Z,952.7
2016-10-12T03:18:13.311Z,952.66
2016-10-12T03:19:13.334Z,952.69
2016-10-12T03:20:13.351Z,952.71
2016-10-12T03:21:13.369Z,952.68
2016-10-12T03:22:13.381Z,952.69
2016-10-12T03:23:13.397Z,952.67
2016-10-12T03:24:13.423Z,952.7
2016-10-12T03:25:13.432Z,952.7
2016-10-12T03:26:13.461Z,952.71
2016-10-12T03:27:13.466Z,952.68
2016-10-12T03:28:13.484Z,952.67
2016-10-12T03:29:13.501Z,952.68
2016-10-12T03:30:13.519Z,952.67
2016-10-12T03:31:13.535Z,952.66
2016-10-12T03:32:13.552Z,952.66
2016-10-12T03:33:13.570Z,952.68
2016-10-12T03:34:13.591Z,952.64
2016-10-12T03:35:13.604Z,952.67
2016-10-12T03:36:13.622Z,952.66
2016-10-12T03:37:13.640Z,952.61
2016-10-12T03:38:13.656Z,952.63
2016-10-12T03:39:13.674Z,952.61
2016-10-12T03:40:13.692Z,952.62
2016-10-12T03:41:13.715Z,952.62
2016-10-12T03:42:13.726Z,952.6
2016-10-12T03:43:13.743Z,952.6
2016-10-12T03:44:13.759Z,952.59
2016-10-12T03:45:13.778Z,952.56
2016-10-12T03:46:13.795Z,952.54
2016-10-12T03:47:13.812Z,952.57
2016-10-12T03:48:13.828Z,952.54
2016-10-12T03:49:13.847Z,952.55
2016-10-12T03:50:13.863Z,952.56
2016-10-12T03:51:13.882Z,952.51
2016-10-12T03:52:13.898Z,952.51
2016-10-12T03:53:13.916Z,952.53
2016-10-12T03:54:13.933Z,952.5
2016-10-12T03:55:13.951Z,952.53
2016-10-12T03:56:13.968Z,952.53
2016-10-12T03:57:13.985Z,952.52
2016-10-12T03:58:14.001Z,952.47
2016-10-12T03:59:14.020Z,952.52
2016-10-12T04:00:14.036Z,952.58
2016-10-12T04:01:14.054Z,952.57
2016-10-12T04:02:14.071Z,952.57
2016-10-12T04:03:14.088Z,952.58
2016-10-12T04:04:14.105Z,952.58
2016-10-12T04:05:14.122Z,952.6
2016-10-12T04:06:14.141Z,952.57
2016-10-12T04:07:14.157Z,952.57
2016-10-12T04:08:14.174Z,952.6
2016-10-12T04:09:14.192Z,952.56
2016-10-12T04:10:14.208Z,952.53
2016-10-12T04:11:14.229Z,952.59
2016-10-12T04:12:14.244Z,952.54
2016-10-12T04:13:14.261Z,952.55
2016-10-12T04:14:14.277Z,952.58
2016-10-12T04:15:14.295Z,952.56
2016-10-12T04:16:14.313Z,952.56
2016-10-12T04:17:14.330Z,952.58
2016-10-12T04:18:14.349Z,952.54
2016-10-12T04:19:14.365Z,952.57
2016-10-12T04:20:14.382Z,952.56
2016-10-12T04:21:14.398Z,952.57
2016-10-12T04:22:14.417Z,952.59
2016-10-12T04:23:14.433Z,952.58
2016-10-12T04:24:14.455Z,952.63
2016-10-12T04:25:14.467Z,952.62
2016-10-12T04:26:14.545Z,952.61
2016-10-12T04:27:14.502Z,952.67
2016-10-12T04:28:14.519Z,952.61
2016-10-12T04:29:14.551Z,952.62
2016-10-12T04:30:14.563Z,952.62
2016-10-12T04:31:14.573Z,952.63
2016-10-12T04:32:14.601Z,952.64
2016-10-12T04:33:14.627Z,952.62
2016-10-12T04:34:14.630Z,952.63
2016-10-12T04:35:14.643Z,952.6
2016-10-12T04:36:14.660Z,952.63
2016-10-12T04:37:14.678Z,952.59
2016-10-12T04:38:14.693Z,952.62
2016-10-12T04:39:14.712Z,952.63
2016-10-12T04:40:14.739Z,952.64
2016-10-12T04:41:14.752Z,952.65
2016-10-12T04:42:14.768Z,952.66
2016-10-12T04:43:14.779Z,952.65
2016-10-12T04:44:14.806Z,952.62
2016-10-12T04:45:14.812Z,952.62
2016-10-12T04:46:14.829Z,952.64
2016-10-12T04:47:14.846Z,952.63
2016-10-12T04:48:14.864Z,952.65
2016-10-12T04:49:14.881Z,952.68
2016-10-12T04:50:14.904Z,952.7
2016-10-12T04:51:14.915Z,952.67
2016-10-12T04:52:14.934Z,952.7
2016-10-12T04:53:14.951Z,952.71
2016-10-12T04:54:15.167Z,952.7
2016-10-12T04:55:14.986Z,952.67
2016-10-12T04:56:15.015Z,952.69
2016-10-12T04:57:15.021Z,952.69
2016-10-12T04:58:15.047Z,952.65
2016-10-12T04:59:15.054Z,952.65
2016-10-12T05:00:15.076Z,952.67
2016-10-12T05:01:15.088Z,952.67
2016-10-12T05:02:15.127Z,952.71
2016-10-12T05:03:15.128Z,952.66
2016-10-12T05:04:15.183Z,952.63
2016-10-12T05:05:15.181Z,952.67
2016-10-12T05:06:15.180Z,952.65
2016-10-12T05:07:15.197Z,952.65
2016-10-12T05:08:15.210Z,952.62
2016-10-12T05:09:15.231Z,952.62
2016-10-12T05:10:15.242Z,952.57
2016-10-12T05:11:15.259Z,952.62
2016-10-12T05:12:15.311Z,952.61
2016-10-12T05:13:15.329Z,952.63
2016-10-12T05:14:15.328Z,952.68
2016-10-12T05:15:15.327Z,952.65
2016-10-12T05:16:15.362Z,952.68
2016-10-12T05:17:15.368Z,952.66
2016-10-12T05:18:15.399Z,952.65
2016-10-12T05:19:15.395Z,952.64
2016-10-12T05:20:15.414Z,952.63
2016-10-12T05:21:15.428Z,952.61
2016-10-12T05:22:15.455Z,952.62
2016-10-12T05:23:15.463Z,952.63
2016-10-12T05:24:15.482Z,952.64
2016-10-12T05:25:15.639Z,952.61
2016-10-12T05:26:15.521Z,952.62
2016-10-12T05:27:15.530Z,952.63
2016-10-12T05:28:15.548Z,952.66
2016-10-12T05:29:15.566Z,952.62
2016-10-12T05:30:15.591Z,952.61
2016-10-12T05:31:15.597Z,952.67
2016-10-12T05:32:15.616Z,952.66
2016-10-12T05:33:15.634Z,952.65
2016-10-12T05:34:15.649Z,952.65
2016-10-12T05:35:15.668Z,952.68
2016-10-12T05:36:15.691Z,952.67
2016-10-12T05:37:15.701Z,952.7
2016-10-12T05:38:15.718Z,952.7
2016-10-12T05:39:15.735Z,952.68
2016-10-12T05:40:15.762Z,952.69
2016-10-12T05:41:15.770Z,952.68
2016-10-12T05:42:15.786Z,952.71
2016-10-12T05:43:15.854Z,952.68
2016-10-12T05:44:15.821Z,952.72
2016-10-12T05:45:15.837Z,952.68
2016-10-12T05:46:15.858Z,952.7
2016-10-12T05:47:15.872Z,952.72
2016-10-12T05:48:15.889Z,952.73
2016-10-12T05:49:15.906Z,952.74
2016-10-12T05:50:15.922Z,952.74
2016-10-12T05:51:15.940Z,952.75
2016-10-12T05:52:15.958Z,952.76
2016-10-12T05:53:15.974Z,952.74
2016-10-12T05:54:15.994Z,952.78
2016-10-12T05:55:16.024Z,952.74
2016-10-12T05:56:16.025Z,952.77
2016-10-12T05:57:16.045Z,952.77
2016-10-12T05:58:16.065Z,952.77
2016-10-12T05:59:16.078Z,952.8
2016-10-12T06:00:16.098Z,952.84
2016-10-12T06:01:16.112Z,952.8
2016-10-12T06:02:16.146Z,952.8
2016-10-12T06:03:16.149Z,952.79
2016-10-12T06:04:16.165Z,952.82
2016-10-12T06:05:16.181Z,952.85
2016-10-12T06:06:16.203Z,952.8
2016-10-12T06:07:16.214Z,952.82
2016-10-12T06:08:16.232Z,952.82
2016-10-12T06:09:16.249Z,952.8
2016-10-12T06:10:16.267Z,952.83
2016-10-12T06:11:16.284Z,952.83
2016-10-12T06:12:16.300Z,952.84
2016-10-12T06:13:16.319Z,952.83
2016-10-12T06:14:16.343Z,952.78
2016-10-12T06:15:16.352Z,952.79
2016-10-12T06:16:16.369Z,952.78
2016-10-12T06:17:16.387Z,952.81
2016-10-12T06:18:16.411Z,952.76
2016-10-12T06:19:16.423Z,952.75
2016-10-12T06:20:16.439Z,952.82
2016-10-12T06:21:16.456Z,952.82
2016-10-12T06:22:16.474Z,952.8
2016-10-12T06:23:16.490Z,952.77
2016-10-12T06:24:16.519Z,952.73
2016-10-12T06:25:16.526Z,952.76
2016-10-12T06:26:16.555Z,952.75
2016-10-12T06:27:16.559Z,952.8
2016-10-12T06:28:16.577Z,952.81
2016-10-12T06:29:16.593Z,952.83
2016-10-12T06:30:16.611Z,952.82
2016-10-12T06:31:16.628Z,952.82
2016-10-12T06:32:16.648Z,952.82
2016-10-12T06:33:16.662Z,952.79
2016-10-12T06:34:16.680Z,952.84
2016-10-12T06:35:16.697Z,952.83
2016-10-12T06:36:16.715Z,952.85
2016-10-12T06:37:16.732Z,952.84
2016-10-12T06:38:16.751Z,952.86
2016-10-12T06:39:16.771Z,952.84
2016-10-12T06:40:16.791Z,952.88
2016-10-12T06:41:16.802Z,952.94
2016-10-12T06:42:16.819Z,952.88
2016-10-12T06:43:16.836Z,952.95
2016-10-12T06:44:16.862Z,952.92
2016-10-12T06:45:16.871Z,952.87
2016-10-12T06:46:16.887Z,952.95
2016-10-12T06:47:16.904Z,952.9
2016-10-12T06:48:16.921Z,952.94
2016-10-12T06:49:16.939Z,952.94
2016-10-12T06:50:16.956Z,952.97
2016-10-12T06:51:16.972Z,952.93
2016-10-12T06:52:16.990Z,952.92
2016-10-12T06:53:17.007Z,952.94
2016-10-12T06:54:17.031Z,952.91
2016-10-12T06:55:17.041Z,952.95
2016-10-12T06:56:17.058Z,952.93
2016-10-12T06:57:17.077Z,952.97
2016-10-12T06:58:17.099Z,952.96
2016-10-12T06:59:17.110Z,952.97
2016-10-12T07:00:17.126Z,952.98
2016-10-12T07:01:17.144Z,952.96
2016-10-12T07:02:17.161Z,952.96
2016-10-12T07:03:17.180Z,952.98
2016-10-12T07:04:17.196Z,952.96
2016-10-12T07:05:17.215Z,953
2016-10-12T07:06:17.231Z,952.96
2016-10-12T07:07:17.248Z,952.96
2016-10-12T07:08:17.275Z,952.98
2016-10-12T07:09:17.287Z,953
2016-10-12T07:10:17.300Z,952.98
2016-10-12T07:11:17.317Z,953.02
2016-10-12T07:12:17.334Z,953.04
2016-10-12T07:13:17.350Z,953.03
2016-10-12T07:14:17.368Z,953.07
2016-10-12T07:15:17.384Z,953.05
2016-10-12T07:16:17.404Z,953.08
2016-10-12T07:17:17.419Z,953.04
2016-10-12T07:18:17.439Z,953.11
2016-10-12T07:19:17.453Z,953.11
2016-10-12T07:20:17.471Z,953.13
2016-10-12T07:21:17.488Z,953.1
2016-10-12T07:22:17.506Z,953.1
2016-10-12T07:23:17.523Z,953.13
2016-10-12T07:24:17.553Z,953.18
2016-10-12T07:25:17.558Z,953.18
2016-10-12T07:26:17.575Z,953.17
2016-10-12T07:27:17.592Z,953.18
2016-10-12T07:28:17.609Z,953.15
2016-10-12T07:29:17.626Z,953.14
2016-10-12T07:30:17.645Z,953.18
2016-10-12T07:31:17.679Z,953.16
2016-10-12T07:32:17.678Z,953.22
2016-10-12T07:33:17.695Z,953.23
2016-10-12T07:34:17.713Z,953.22
2016-10-12T07:35:17.731Z,953.25
2016-10-12T07:36:17.750Z,953.25
2016-10-12T07:37:17.764Z,953.27
2016-10-12T07:38:17.783Z,953.3
2016-10-12T07:39:17.800Z,953.29
2016-10-12T07:40:17.817Z,953.32
2016-10-12T07:41:17.834Z,953.33
2016-10-12T07:42:17.849Z,953.31
2016-10-12T07:43:17.869Z,953.33
2016-10-12T07:44:17.885Z,953.35
2016-10-12T07:45:17.903Z,953.35
2016-10-12T07:46:17.920Z,953.36
2016-10-12T07:47:17.937Z,953.38
2016-10-12T07:48:17.955Z,953.43
2016-10-12T07:49:17.972Z,953.41
2016-10-12T07:50:17.988Z,953.43
2016-10-12T07:51:18.005Z,953.42
2016-10-12T07:52:18.024Z,953.41
2016-10-12T07:53:18.041Z,953.44
2016-10-12T07:54:18.060Z,953.47
2016-10-12T07:55:18.076Z,953.47
2016-10-12T07:56:18.094Z,953.49
2016-10-12T07:57:18.112Z,953.48
2016-10-12T07:58:18.129Z,953.48
2016-10-12T07:59:18.147Z,953.51
2016-10-12T08:00:18.167Z,953.47
2016-10-12T08:01:18.185Z,953.53
2016-10-12T08:02:18.202Z,953.54
2016-10-12T08:03:18.224Z,953.54
2016-10-12T08:04:18.238Z,953.52
2016-10-12T08:05:18.253Z,953.53
2016-10-12T08:06:18.271Z,953.56
2016-10-12T08:07:18.288Z,953.59
2016-10-12T08:08:18.306Z,953.63
2016-10-12T08:09:18.324Z,953.58
2016-10-12T08:10:18.342Z,953.57
2016-10-12T08:11:18.359Z,953.57
2016-10-12T08:12:18.376Z,953.58
2016-10-12T08:13:18.396Z,953.58
2016-10-12T08:14:18.413Z,953.59
2016-10-12T08:15:18.431Z,953.59
2016-10-12T08:16:18.461Z,953.6
2016-10-12T08:17:18.466Z,953.59
2016-10-12T08:18:18.485Z,953.61
2016-10-12T08:19:18.503Z,953.68
2016-10-12T08:20:18.523Z,953.66
2016-10-12T08:21:18.540Z,953.68
2016-10-12T08:22:18.556Z,953.67
2016-10-12T08:23:18.584Z,953.69
2016-10-12T08:24:18.592Z,953.68
2016-10-12T08:25:18.610Z,953.71
2016-10-12T08:26:18.627Z,953.67
2016-10-12T08:27:18.647Z,953.69
2016-10-12T08:28:18.666Z,953.67
2016-10-12T08:29:18.684Z,953.68
2016-10-12T08:30:18.700Z,953.71
2016-10-12T08:31:18.741Z,953.65
2016-10-12T08:32:18.737Z,953.73
2016-10-12T08:33:18.754Z,953.71
2016-10-12T08:34:18.775Z,953.7
2016-10-12T08:35:18.789Z,953.7
2016-10-12T08:36:18.810Z,953.7
2016-10-12T08:37:18.824Z,953.73
2016-10-12T08:38:18.864Z,953.73
2016-10-12T08:39:18.863Z,953.73
2016-10-12T08:40:18.881Z,953.71
2016-10-12T08:41:18.899Z,953.7
2016-10-12T08:42:18.918Z,953.73
2016-10-12T08:43:18.934Z,953.71
2016-10-12T08:44:18.952Z,953.73
2016-10-12T08:45:18.971Z,953.73
2016-10-12T08:46:18.989Z,953.68
2016-10-12T08:47:19.008Z,953.69
2016-10-12T08:48:19.023Z,953.71
2016-10-12T08:49:19.043Z,953.69
2016-10-12T08:50:19.089Z,953.69
2016-10-12T08:51:19.159Z,953.67
2016-10-12T08:52:19.120Z,953.67
2016-10-12T08:53:19.145Z,953.68
2016-10-12T08:54:19.132Z,953.66
2016-10-12T08:55:19.149Z,953.7
2016-10-12T08:56:19.175Z,953.68
2016-10-12T08:57:19.191Z,953.67
2016-10-12T08:58:19.217Z,953.69
2016-10-12T08:59:19.221Z,953.7
2016-10-12T09:00:19.239Z,953.72
2016-10-12T09:01:19.258Z,953.67
2016-10-12T09:02:19.276Z,953.72
2016-10-12T09:03:19.293Z,953.74
2016-10-12T09:04:19.311Z,953.71
2016-10-12T09:05:19.331Z,953.68
2016-10-12T09:06:19.347Z,953.66
2016-10-12T09:07:19.366Z,953.67
2016-10-12T09:08:19.389Z,953.72
2016-10-12T09:09:19.542Z,953.75
2016-10-12T09:10:19.592Z,953.71
2016-10-12T09:11:19.440Z,953.71
2016-10-12T09:12:19.457Z,953.69
2016-10-12T09:13:19.477Z,953.7
2016-10-12T09:14:19.501Z,953.71
2016-10-12T09:15:19.517Z,953.7
2016-10-12T09:16:19.544Z,953.67
2016-10-12T09:17:19.548Z,953.73
2016-10-12T09:18:19.567Z,953.68
2016-10-12T09:19:19.585Z,953.7
2016-10-12T09:20:19.602Z,953.68
2016-10-12T09:21:19.622Z,953.67
2016-10-12T09:22:19.639Z,953.69
2016-10-12T09:23:19.665Z,953.68
2016-10-12T09:24:19.676Z,953.68
2016-10-12T09:25:19.694Z,953.69
2016-10-12T09:26:19.712Z,953.7
2016-10-12T09:27:19.731Z,953.68
2016-10-12T09:28:19.747Z,953.68
2016-10-12T09:29:19.767Z,953.65
2016-10-12T09:30:19.787Z,953.69
2016-10-12T09:31:19.804Z,953.71
2016-10-12T09:32:19.822Z,953.69
2016-10-12T09:33:19.842Z,953.67
2016-10-12T09:34:19.858Z,953.69
2016-10-12T09:35:19.877Z,953.71
2016-10-12T09:36:19.896Z,953.72
2016-10-12T09:37:19.915Z,953.75
2016-10-12T09:38:20.049Z,953.7
2016-10-12T09:39:19.951Z,953.78
2016-10-12T09:40:19.970Z,953.72
2016-10-12T09:41:19.992Z,953.76
2016-10-12T09:42:20.021Z,953.72
2016-10-12T09:43:20.059Z,953.73
2016-10-12T09:44:20.046Z,953.73
2016-10-12T09:45:20.066Z,953.73
2016-10-12T09:46:20.082Z,953.74
2016-10-12T09:47:20.105Z,953.75
2016-10-12T09:48:20.119Z,953.73
2016-10-12T09:49:20.138Z,953.75
2016-10-12T09:50:20.155Z,953.75
2016-10-12T09:51:20.174Z,953.78
2016-10-12T09:52:20.193Z,953.73
2016-10-12T09:53:20.214Z,953.74
2016-10-12T09:54:20.230Z,953.71
2016-10-12T09:55:20.256Z,953.78
2016-10-12T09:56:20.269Z,953.75
2016-10-12T09:57:20.286Z,953.73
2016-10-12T09:58:20.306Z,953.75
2016-10-12T09:59:20.324Z,953.77
2016-10-12T10:00:20.354Z,953.75
2016-10-12T10:01:20.361Z,953.78
2016-10-12T10:02:20.396Z,953.77
2016-10-12T10:03:20.399Z,953.77
2016-10-12T10:04:20.419Z,953.8
2016-10-12T10:05:20.468Z,953.78
2016-10-12T10:06:20.569Z,953.8
2016-10-12T10:07:20.625Z,953.83
2016-10-12T10:08:20.523Z,953.84
2016-10-12T10:09:20.519Z,953.82
2016-10-12T10:10:20.534Z,953.8
2016-10-12T10:11:20.551Z,953.85
2016-10-12T10:12:20.569Z,953.84
2016-10-12T10:13:20.589Z,953.82
2016-10-12T10:14:20.606Z,953.82
2016-10-12T10:15:20.627Z,953.83
2016-10-12T10:16:20.645Z,953.82
2016-10-12T10:17:20.704Z,953.87
2016-10-12T10:18:20.682Z,953.86
2016-10-12T10:19:20.702Z,953.86
2016-10-12T10:20:20.719Z,953.86
2016-10-12T10:21:20.737Z,953.89
2016-10-12T10:22:20.756Z,953.86
2016-10-12T10:23:20.777Z,953.83
2016-10-12T10:24:20.794Z,953.84
2016-10-12T10:25:20.812Z,953.88
2016-10-12T10:26:20.831Z,953.89
2016-10-12T10:27:20.850Z,953.88
2016-10-12T10:28:20.872Z,953.86
2016-10-12T10:29:20.887Z,953.88
2016-10-12T10:30:20.906Z,953.86
2016-10-12T10:31:20.926Z,953.89
2016-10-12T10:32:20.943Z,953.86
2016-10-12T10:33:20.964Z,953.87
2016-10-12T10:34:20.982Z,953.84
2016-10-12T10:35:21.123Z,953.9
2016-10-12T10:36:21.018Z,953.87
2016-10-12T10:37:21.037Z,953.85
2016-10-12T10:38:21.069Z,953.88
2016-10-12T10:39:21.074Z,953.86
2016-10-12T10:40:21.094Z,953.89
2016-10-12T10:41:21.113Z,953.86
2016-10-12T10:42:21.132Z,953.88
2016-10-12T10:43:21.149Z,953.84
2016-10-12T10:44:21.169Z,953.88
2016-10-12T10:45:21.189Z,953.88
2016-10-12T10:46:21.206Z,953.84
2016-10-12T10:47:21.225Z,953.84
2016-10-12T10:48:21.244Z,953.79
2016-10-12T10:49:21.260Z,953.83
2016-10-12T10:50:21.281Z,953.81
2016-10-12T10:51:21.301Z,953.8
2016-10-12T10:52:21.318Z,953.78
2016-10-12T10:53:21.349Z,953.81
2016-10-12T10:54:21.357Z,953.77
2016-10-12T10:55:21.376Z,953.75
2016-10-12T10:56:21.393Z,953.7
2016-10-12T10:57:21.413Z,953.74
2016-10-12T10:58:21.431Z,953.73
2016-10-12T10:59:21.450Z,953.7
2016-10-12T11:00:21.468Z,953.69
2016-10-12T11:01:21.487Z,953.7
2016-10-12T11:02:21.506Z,953.69
2016-10-12T11:03:21.526Z,953.72
2016-10-12T11:04:21.542Z,953.68
2016-10-12T11:05:21.562Z,953.64
2016-10-12T11:06:21.582Z,953.64
2016-10-12T11:07:21.599Z,953.64
2016-10-12T11:08:21.618Z,953.62
2016-10-12T11:09:21.637Z,953.59
2016-10-12T11:10:21.656Z,953.61
2016-10-12T11:11:21.675Z,953.59
2016-10-12T11:12:21.694Z,953.61
2016-10-12T11:13:21.722Z,953.6
2016-10-12T11:14:21.729Z,953.64
2016-10-12T11:15:21.749Z,953.61
2016-10-12T11:16:21.767Z,953.63
2016-10-12T11:17:21.786Z,953.63
2016-10-12T11:18:21.804Z,953.6
2016-10-12T11:19:21.823Z,953.6
2016-10-12T11:20:21.841Z,953.62
2016-10-12T11:21:21.860Z,953.59
2016-10-12T11:22:21.879Z,953.58
2016-10-12T11:23:21.897Z,953.54
2016-10-12T11:24:21.916Z,953.58
2016-10-12T11:25:21.936Z,953.59
2016-10-12T11:26:21.952Z,953.56
2016-10-12T11:27:21.971Z,953.59
2016-10-12T11:28:21.990Z,953.58
2016-10-12T11:29:22.009Z,953.58
2016-10-12T11:30:22.028Z,953.61
2016-10-12T11:31:22.046Z,953.6
2016-10-12T11:32:22.062Z,953.62
2016-10-12T11:33:22.083Z,953.61
2016-10-12T11:34:22.101Z,953.62
2016-10-12T11:35:22.119Z,953.58
2016-10-12T11:36:22.137Z,953.61
2016-10-12T11:37:22.156Z,953.58
2016-10-12T11:38:22.176Z,953.61
2016-10-12T11:39:22.194Z,953.56
2016-10-12T11:40:22.213Z,953.62
2016-10-12T11:41:22.230Z,953.57
2016-10-12T11:42:22.250Z,953.55
2016-10-12T11:43:22.268Z,953.56
2016-10-12T11:44:22.287Z,953.56
2016-10-12T11:45:22.305Z,953.58
2016-10-12T11:46:22.325Z,953.57
2016-10-12T11:47:22.342Z,953.54
2016-10-12T11:48:22.362Z,953.58
2016-10-12T11:49:22.382Z,953.57
2016-10-12T11:50:22.399Z,953.54
2016-10-12T11:51:22.417Z,953.56
2016-10-12T11:52:22.436Z,953.53
2016-10-12T11:53:22.464Z,953.55
2016-10-12T11:54:22.474Z,953.53
2016-10-12T11:55:22.493Z,953.54
2016-10-12T11:56:22.512Z,953.55
2016-10-12T11:57:22.536Z,953.5
2016-10-12T11:58:22.551Z,953.51
2016-10-12T11:59:22.570Z,953.49
2016-10-12T12:00:22.591Z,953.45
2016-10-12T12:01:22.610Z,953.43
2016-10-12T12:02:22.627Z,953.48
2016-10-12T12:03:22.648Z,953.46
2016-10-12T12:04:22.669Z,953.46
2016-10-12T12:05:22.685Z,953.44
2016-10-12T12:06:22.704Z,953.44
2016-10-12T12:07:22.728Z,953.46
2016-10-12T12:08:22.748Z,953.43
2016-10-12T12:09:22.764Z,953.36
2016-10-12T12:10:22.784Z,953.34
2016-10-12T12:11:22.804Z,953.39
2016-10-12T12:12:22.825Z,953.41
2016-10-12T12:13:22.845Z,953.35
2016-10-12T12:14:22.865Z,953.37
2016-10-12T12:15:22.884Z,953.35
2016-10-12T12:16:22.905Z,953.32
2016-10-12T12:17:22.925Z,953.28
2016-10-12T12:18:22.945Z,953.28
2016-10-12T12:19:22.967Z,953.29
2016-10-12T12:20:22.986Z,953.28
2016-10-12T12:21:23.007Z,953.29
2016-10-12T12:22:23.031Z,953.3
2016-10-12T12:23:23.068Z,953.23
2016-10-12T12:24:23.078Z,953.25
2016-10-12T12:25:23.089Z,953.26
2016-10-12T12:26:23.135Z,953.24
2016-10-12T12:27:23.131Z,953.24
2016-10-12T12:28:23.157Z,953.28
2016-10-12T12:29:23.187Z,953.26
2016-10-12T12:30:23.213Z,953.24